Terminal Aerodrome Forecast
Issued by NWS Albuquerque, NM

Home | Current Version | Previous Version | Text Only | Print | Product List | Glossary On
Versions: 1 2 3 4 5 6 7 8 9 10 11 12 13 14 15 16 17
000
FTUS45 KABQ 200200 AAA
TAFABQ
TAF AMD
KABQ 200232Z 2003/2024 20008KT P6SM -RA FEW040 BKN080
     FM200400 36010KT P6SM VCSH SCT025 OVC070CB
     FM200800 09010KT P6SM SCT025 OVC040
     FM201500 27006KT P6SM BKN060
     FM202000 30012G20KT P6SM VCSH BKN100=

USA.gov is the U.S. government's official web portal to all federal, state and local government web resources and services.